Downsville, New York
Current Conditions -  °F | °C
As of 12:15 PM on Thursday 18 Dec 2014 (Local Time) from KMSV Reporting Station
Overcast Overcast  
Wind Chill: 20°   Ceiling: 1700
Heat Index: 30°   Visibility: 10mi
Dew Point: 25°   Wind: 13mph
Humidity: 80%   Direction: 300°WNW
Pressure: 29.92"   Gusts: 22mph
Location:  42.08°N, 75°W
Report Text: KMSV 181715Z AUTO 30011G19KT 10SM OVC017 M01/M04 A2992 RMK AO1
Loading
Personal Weather Stations






























Interactive Weather Map New forecast layout! Learn more

10-Day Weather Forecast

Advertisements
Track Severe Weather on mobile